Time;durP1;ratioP1;P1;durP2;ratioP2;P2;SDS_P1;SDS_P2;PMS_P1;PMS_P2;Temp;Humidity;BMP_temperature;BMP_pressure;BME280_temperature;BME280_humidity;BME280_pressure;Samples;Min_cycle;Max_cycle;Signal;HPM_P1;HPM_P2
2020/12/31 00:01:28;;;;;;;4.60;2.22;;;;;;;1.74;89.38;95552.06;4957212;28;20050;-49
2020/12/31 00:03:55;;;;;;;3.95;2.50;;;;;;;1.64;90.32;95549.28;4983584;28;20126;-46
2020/12/31 00:06:22;;;;;;;3.88;2.63;;;;;;;1.55;91.56;95553.41;4946000;28;20060;-47
2020/12/31 00:08:50;;;;;;;3.92;2.53;;;;;;;1.48;91.54;95551.34;4986787;28;20056;-49
2020/12/31 00:11:17;;;;;;;5.88;2.58;;;;;;;1.42;91.92;95550.03;4956310;28;20038;-46
2020/12/31 00:13:44;;;;;;;3.95;2.50;;;;;;;1.33;92.89;95561.09;4983114;28;20129;-46
2020/12/31 00:16:11;;;;;;;5.10;2.50;;;;;;;1.16;93.92;95552.72;4982477;28;20034;-46
2020/12/31 00:18:38;;;;;;;4.13;2.50;;;;;;;1.13;94.01;95558.13;4957935;28;20046;-46
2020/12/31 00:21:05;;;;;;;3.83;2.67;;;;;;;1.06;94.66;95549.13;4984476;28;20142;-47
2020/12/31 00:23:32;;;;;;;4.18;2.30;;;;;;;1.02;95.48;95552.06;4948835;28;20046;-45
2020/12/31 00:26:00;;;;;;;4.50;2.90;;;;;;;1.03;95.31;95548.53;4986643;28;20563;-48
2020/12/31 00:28:27;;;;;;;5.28;2.90;;;;;;;0.99;94.61;95547.91;4951952;28;20038;-50
2020/12/31 00:30:54;;;;;;;4.32;2.70;;;;;;;0.87;95.58;95552.22;4983560;28;20042;-46
2020/12/31 00:33:21;;;;;;;4.18;2.90;;;;;;;0.75;97.13;95549.63;4956740;28;20039;-45
2020/12/31 00:35:50;;;;;;;4.57;2.72;;;;;;;0.82;96.61;95540.47;4980701;28;20416;-47
2020/12/31 00:38:17;;;;;;;4.60;2.80;;;;;;;0.74;97.08;95545.41;4951126;28;20505;-47
2020/12/31 00:40:45;;;;;;;4.32;2.92;;;;;;;0.70;97.75;95550.78;4985127;28;20074;-45
2020/12/31 00:43:12;;;;;;;5.72;3.30;;;;;;;0.64;97.63;95540.00;4951780;28;20046;-47
2020/12/31 00:45:39;;;;;;;4.60;3.00;;;;;;;0.53;97.01;95553.72;4983047;28;20039;-49
2020/12/31 00:48:06;;;;;;;5.05;2.97;;;;;;;0.50;99.43;95551.34;4960465;28;20041;-47
2020/12/31 00:50:34;;;;;;;5.55;3.05;;;;;;;0.68;98.35;95557.00;4984827;28;20050;-45
2020/12/31 00:53:01;;;;;;;5.35;3.13;;;;;;;0.65;96.49;95557.22;4957844;28;26441;-49
2020/12/31 00:55:29;;;;;;;7.72;3.40;;;;;;;0.54;97.85;95557.97;4966827;28;20077;-50
2020/12/31 00:57:57;;;;;;;4.68;3.00;;;;;;;0.62;96.66;95557.44;4965132;28;20050;-45
2020/12/31 01:00:26;;;;;;;4.20;3.00;;;;;;;0.67;96.25;95563.97;4965591;28;20030;-47
2020/12/31 01:03:05;;;;;;;4.85;2.85;;;;;;;0.64;96.10;95561.59;4985163;28;20034;-45
2020/12/31 01:05:33;;;;;;;6.05;3.13;;;;;;;0.67;96.38;95563.16;4975505;28;20042;-46
2020/12/31 01:08:00;;;;;;;5.68;3.10;;;;;;;0.57;97.19;95562.94;4983017;28;20150;-45
2020/12/31 01:10:27;;;;;;;5.13;3.40;;;;;;;0.63;96.99;95564.31;4948972;28;20675;-48
2020/12/31 01:12:54;;;;;;;3.67;2.10;;;;;;;0.68;96.33;95565.63;4985484;28;20031;-47
2020/12/31 01:15:21;;;;;;;4.75;3.30;;;;;;;0.71;95.57;95564.59;4953345;28;20062;-47
2020/12/31 01:17:49;;;;;;;6.53;3.45;;;;;;;0.74;95.85;95560.97;4982034;28;20061;-46
2020/12/31 01:20:16;;;;;;;4.93;3.17;;;;;;;0.67;96.07;95563.97;4955530;28;20090;-46
2020/12/31 01:22:43;;;;;;;4.65;3.25;;;;;;;0.73;96.17;95562.72;4983453;28;20069;-46
2020/12/31 01:25:10;;;;;;;6.50;3.80;;;;;;;0.71;95.92;95559.41;4950299;28;20374;-46
2020/12/31 01:27:38;;;;;;;5.68;3.28;;;;;;;0.79;95.41;95561.47;4985342;28;20521;-46
2020/12/31 01:30:06;;;;;;;5.32;3.22;;;;;;;0.87;95.14;95556.56;4953410;28;20065;-46
2020/12/31 01:32:33;;;;;;;7.35;3.70;;;;;;;0.97;94.76;95547.22;4984643;28;20038;-47
2020/12/31 01:35:02;;;;;;;6.22;3.40;;;;;;;1.05;94.04;95563.06;4957779;28;20042;-48
2020/12/31 01:37:29;;;;;;;6.18;3.47;;;;;;;1.04;94.37;95553.63;4981538;28;20097;-49
2020/12/31 01:39:55;;;;;;;4.82;2.80;;;;;;;1.08;93.85;95559.41;4949308;28;20148;-46
2020/12/31 01:42:22;;;;;;;5.25;3.22;;;;;;;1.12;93.08;95558.25;4986131;28;20042;-47
2020/12/31 01:44:49;;;;;;;5.38;3.58;;;;;;;1.07;93.78;95550.81;4963867;28;20401;-46
2020/12/31 01:47:16;;;;;;;5.43;3.50;;;;;;;1.09;94.01;95556.69;4984972;28;20038;-47
2020/12/31 01:49:44;;;;;;;4.75;3.35;;;;;;;1.14;93.48;95549.44;4981697;28;20069;-45
2020/12/31 01:52:13;;;;;;;4.88;2.90;;;;;;;1.10;94.05;95547.16;4962208;28;20041;-45
2020/12/31 01:54:40;;;;;;;5.28;3.28;;;;;;;1.10;93.88;95550.59;4987289;28;20043;-46
2020/12/31 01:57:08;;;;;;;5.55;3.65;;;;;;;1.08;94.21;95551.63;4950666;28;20050;-48
2020/12/31 01:59:36;;;;;;;6.03;3.75;;;;;;;1.11;93.76;95541.84;4987906;28;20034;-48
2020/12/31 02:02:03;;;;;;;4.72;3.50;;;;;;;1.04;94.10;95555.38;4959858;28;20441;-46
2020/12/31 02:04:30;;;;;;;6.88;3.42;;;;;;;0.99;94.51;95544.47;4984840;28;20034;-51
2020/12/31 02:06:56;;;;;;;6.68;3.40;;;;;;;0.92;94.97;95538.91;4959118;28;20042;-45
2020/12/31 02:09:25;;;;;;;5.72;4.03;;;;;;;0.96;94.76;95540.34;4987158;28;20042;-50
2020/12/31 02:11:52;;;;;;;5.40;2.67;;;;;;;0.85;94.76;95545.47;4958425;28;20437;-46
2020/12/31 02:14:18;;;;;;;5.07;3.65;;;;;;;0.79;95.41;95549.34;4986103;28;20793;-46
2020/12/31 02:16:46;;;;;;;5.57;3.70;;;;;;;0.69;96.04;95538.75;4957296;28;20440;-48
2020/12/31 02:19:15;;;;;;;6.85;3.95;;;;;;;0.61;96.94;95538.44;4987005;28;20045;-45
2020/12/31 02:21:44;;;;;;;7.00;4.25;;;;;;;0.61;96.44;95540.22;4955719;28;20081;-45
2020/12/31 02:24:11;;;;;;;5.18;3.47;;;;;;;0.51;97.35;95540.03;4975331;28;20412;-46
2020/12/31 02:26:40;;;;;;;5.32;3.83;;;;;;;0.47;96.91;95548.97;4951741;28;21713;-52
2020/12/31 02:29:10;;;;;;;5.30;3.60;;;;;;;0.42;97.87;95538.09;4985858;28;20046;-46
2020/12/31 02:31:38;;;;;;;7.18;4.68;;;;;;;0.40;97.57;95542.53;4961803;28;20085;-44
2020/12/31 02:34:06;;;;;;;7.25;3.92;;;;;;;0.16;98.47;95535.50;4988225;28;20038;-47
2020/12/31 02:36:35;;;;;;;6.03;4.05;;;;;;;0.09;99.49;95544.63;4980454;28;20117;-46
2020/12/31 02:39:05;;;;;;;7.55;3.58;;;;;;;0.06;100.00;95541.41;4961788;28;20061;-47
2020/12/31 02:41:32;;;;;;;8.03;4.00;;;;;;;-0.04;100.00;95546.38;4987099;28;20145;-45
2020/12/31 02:43:59;;;;;;;6.60;3.92;;;;;;;-0.01;100.00;95539.22;4949551;28;20088;-46
2020/12/31 02:46:26;;;;;;;5.75;3.63;;;;;;;0.10;100.00;95532.47;4985989;28;20042;-46
2020/12/31 02:48:53;;;;;;;6.57;3.72;;;;;;;0.00;100.00;95542.66;4958026;28;20513;-48
2020/12/31 02:51:21;;;;;;;5.05;3.47;;;;;;;-0.06;100.00;95528.34;4985458;28;20117;-49
2020/12/31 02:53:48;;;;;;;6.55;3.53;;;;;;;-0.03;100.00;95535.91;4957523;28;20074;-47
2020/12/31 02:56:19;;;;;;;5.60;3.92;;;;;;;-0.10;100.00;95533.84;4985930;28;20053;-46
2020/12/31 02:58:47;;;;;;;;;;;;;;;-0.17;100.00;95529.97;4950059;28;20047;-46
2020/12/31 03:01:14;;;;;;;6.75;4.03;;;;;;;-0.08;100.00;95526.78;4984071;28;20049;-47
2020/12/31 03:03:41;;;;;;;7.38;4.60;;;;;;;-0.02;100.00;95526.38;4957663;28;20132;-46
2020/12/31 03:06:08;;;;;;;6.35;3.90;;;;;;;-0.10;100.00;95528.66;4989094;28;20508;-45
2020/12/31 03:08:36;;;;;;;8.75;4.60;;;;;;;-0.12;100.00;95531.34;4964336;28;20042;-45
2020/12/31 03:11:06;;;;;;;6.47;4.40;;;;;;;-0.10;100.00;95526.06;4982605;28;20042;-46
2020/12/31 03:13:34;;;;;;;8.75;4.75;;;;;;;-0.06;100.00;95535.28;4956543;28;22936;-46
2020/12/31 03:16:00;;;;;;;7.15;4.82;;;;;;;-0.07;100.00;95537.06;4984420;28;20039;-45
2020/12/31 03:18:28;;;;;;;8.45;5.20;;;;;;;-0.19;100.00;95534.44;4963558;28;20073;-45
2020/12/31 03:20:54;;;;;;;7.32;5.00;;;;;;;-0.23;100.00;95528.63;4989057;28;20125;-49
2020/12/31 03:23:22;;;;;;;7.20;4.65;;;;;;;-0.31;100.00;95526.56;4983852;28;20437;-51
2020/12/31 03:25:49;;;;;;;9.15;5.05;;;;;;;-0.53;100.00;95523.72;4950168;28;20050;-46
2020/12/31 03:28:16;;;;;;;9.25;4.82;;;;;;;-0.69;100.00;95529.03;4987077;28;20034;-48
2020/12/31 03:30:45;;;;;;;8.50;5.28;;;;;;;-0.64;100.00;95521.81;4948981;28;20062;-48
2020/12/31 03:33:13;;;;;;;8.18;4.75;;;;;;;-0.77;100.00;95539.06;4984256;28;20548;-46
2020/12/31 03:35:41;;;;;;;7.18;4.75;;;;;;;-0.74;100.00;95531.94;4951879;28;20574;-47
2020/12/31 03:38:08;;;;;;;8.20;4.65;;;;;;;-0.66;100.00;95533.19;4986071;28;20116;-46
2020/12/31 03:40:35;;;;;;;6.55;4.40;;;;;;;-0.63;100.00;95531.25;4952662;28;20489;-50
2020/12/31 03:43:02;;;;;;;7.70;4.72;;;;;;;-0.66;100.00;95526.25;4984763;28;20662;-50
2020/12/31 03:45:29;;;;;;;7.53;5.05;;;;;;;-1.08;100.00;95524.66;4952068;28;20074;-48
2020/12/31 03:47:57;;;;;;;8.68;4.88;;;;;;;-1.53;100.00;95535.19;4984776;28;20120;-47
2020/12/31 03:50:24;;;;;;;10.88;5.10;;;;;;;-1.73;100.00;95535.56;4954050;28;20042;-49
2020/12/31 03:52:51;;;;;;;8.52;4.97;;;;;;;-1.81;100.00;95541.22;4986016;28;20120;-46
2020/12/31 03:55:18;;;;;;;8.18;4.80;;;;;;;-1.92;100.00;95539.28;4948214;28;20088;-49
2020/12/31 03:57:45;;;;;;;7.80;4.63;;;;;;;-1.88;100.00;95539.09;4982109;28;20046;-50
2020/12/31 04:00:12;;;;;;;7.55;4.30;;;;;;;-2.03;100.00;95536.50;4956672;28;20435;-45
2020/12/31 04:02:39;;;;;;;8.30;4.82;;;;;;;-2.06;100.00;95531.50;4986146;28;20089;-48
2020/12/31 04:05:08;;;;;;;6.88;4.85;;;;;;;-2.32;100.00;95530.44;4980434;28;20497;-49
2020/12/31 04:07:35;;;;;;;7.53;4.93;;;;;;;-2.32;100.00;95525.28;4961591;28;20042;-52
2020/12/31 04:10:04;;;;;;;9.38;4.70;;;;;;;-2.38;100.00;95526.47;4985049;28;20125;-52
2020/12/31 04:12:31;;;;;;;8.30;4.80;;;;;;;-2.42;100.00;95525.00;4946650;28;20437;-48
2020/12/31 04:14:58;;;;;;;7.50;5.05;;;;;;;-2.42;100.00;95519.81;4987474;28;20042;-48
2020/12/31 04:17:24;;;;;;;9.13;5.28;;;;;;;-2.40;100.00;95523.16;4956825;28;20124;-46
2020/12/31 04:19:52;;;;;;;7.72;5.15;;;;;;;-2.36;100.00;95522.97;4984216;28;20034;-48
2020/12/31 04:22:19;;;;;;;7.95;4.88;;;;;;;-2.41;100.00;95521.50;4955367;28;20117;-48
2020/12/31 04:24:47;;;;;;;8.70;5.25;;;;;;;-2.38;100.00;95521.31;4984860;28;20058;-49
2020/12/31 04:27:14;;;;;;;8.07;5.20;;;;;;;-2.41;100.00;95521.50;4951308;28;20467;-48
2020/12/31 04:29:41;;;;;;;8.32;5.18;;;;;;;-2.47;100.00;95519.28;4983414;28;20101;-47
2020/12/31 04:32:07;;;;;;;9.40;6.00;;;;;;;-2.40;100.00;95514.59;4954019;28;20065;-47
2020/12/31 04:34:34;;;;;;;10.30;5.63;;;;;;;-2.46;100.00;95515.75;4985072;28;20515;-45
2020/12/31 04:37:03;;;;;;;9.73;5.22;;;;;;;-2.29;100.00;95516.53;4946430;28;20066;-46
2020/12/31 04:39:31;;;;;;;10.40;5.63;;;;;;;-2.47;100.00;95510.72;4985269;28;20097;-45
2020/12/31 04:41:59;;;;;;;9.05;5.25;;;;;;;-2.56;100.00;95506.88;4955092;28;23482;-47
2020/12/31 04:44:26;;;;;;;8.95;5.82;;;;;;;-2.52;100.00;95504.97;4980593;28;20214;-46
2020/12/31 04:46:55;;;;;;;8.52;4.80;;;;;;;-2.61;100.00;95505.50;4959796;28;20548;-45
2020/12/31 04:49:26;;;;;;;8.45;5.35;;;;;;;-2.75;100.00;95509.72;4986227;28;20062;-45
2020/12/31 04:51:55;;;;;;;11.00;5.00;;;;;;;-2.79;100.00;95508.19;4981289;28;20030;-46
2020/12/31 04:54:22;;;;;;;7.82;5.18;;;;;;;-2.78;100.00;95506.47;4954548;28;20133;-48
2020/12/31 04:56:51;;;;;;;10.50;5.38;;;;;;;-2.87;100.00;95507.81;4987101;28;20440;-47
2020/12/31 04:59:18;;;;;;;8.55;5.03;;;;;;;-2.90;100.00;95513.97;4947664;28;20478;-56
2020/12/31 05:01:45;;;;;;;9.75;5.28;;;;;;;-2.76;100.00;95515.78;4982600;28;20042;-46
2020/12/31 05:04:13;;;;;;;9.40;5.60;;;;;;;-2.62;100.00;95514.97;4955150;28;20027;-46
2020/12/31 05:06:41;;;;;;;9.18;5.80;;;;;;;-2.46;100.00;95517.53;4984544;28;20043;-46
2020/12/31 05:09:15;;;;;;;9.40;5.13;;;;;;;-2.34;100.00;95515.97;4962308;28;20100;-50
2020/12/31 05:11:43;;;;;;;9.27;4.63;;;;;;;-2.30;100.00;95518.28;4987257;28;20038;-49
2020/12/31 05:14:12;;;;;;;8.45;4.65;;;;;;;-2.27;100.00;95519.84;4953054;28;20070;-45
2020/12/31 05:16:39;;;;;;;11.18;5.35;;;;;;;-2.24;100.00;95512.75;4984295;28;20038;-46
2020/12/31 05:19:24;;;;;;;8.65;5.07;;;;;;;-2.23;100.00;95514.44;4960032;28;20047;-48
2020/12/31 05:22:11;;;;;;;10.77;6.40;;;;;;;-2.28;100.00;95518.19;4986901;28;20046;-45
2020/12/31 05:24:38;;;;;;;10.43;6.22;;;;;;;-2.22;100.00;95515.25;4959493;28;20062;-48
2020/12/31 05:27:23;;;;;;;8.70;5.60;;;;;;;-2.23;100.00;95517.00;4985912;28;20072;-48
2020/12/31 05:30:00;;;;;;;9.80;5.80;;;;;;;-2.26;100.00;95521.53;4955431;28;20061;-50
2020/12/31 05:32:28;;;;;;;9.63;5.70;;;;;;;-2.32;100.00;95511.56;4984800;28;20038;-50
2020/12/31 05:34:56;;;;;;;11.30;6.30;;;;;;;-2.37;100.00;95517.00;4959329;28;20039;-50
2020/12/31 05:37:25;;;;;;;10.13;5.80;;;;;;;-2.44;100.00;95513.13;4981487;28;20038;-49
2020/12/31 05:40:00;;;;;;;10.50;6.25;;;;;;;-2.16;100.00;95510.56;4961767;28;20039;-52
2020/12/31 05:42:28;;;;;;;10.25;6.10;;;;;;;-2.21;100.00;95517.72;4985421;28;20046;-52
2020/12/31 05:45:04;;;;;;;11.70;6.00;;;;;;;-2.30;100.00;95513.13;4956937;28;20046;-48
2020/12/31 05:47:32;;;;;;;9.65;6.25;;;;;;;-2.39;100.00;95511.09;4986859;28;20054;-46
2020/12/31 05:49:58;;;;;;;11.15;6.20;;;;;;;-2.40;100.00;95512.00;4956263;28;20093;-48
2020/12/31 05:52:35;;;;;;;13.45;6.15;;;;;;;-2.32;100.00;95514.97;4988321;28;20568;-46
2020/12/31 05:55:05;;;;;;;10.05;5.63;;;;;;;-2.36;100.00;95508.31;4960249;28;20042;-45
2020/12/31 05:57:46;;;;;;;10.27;6.35;;;;;;;-2.29;100.00;95512.19;4984041;28;20058;-46
2020/12/31 06:00:16;;;;;;;11.52;6.43;;;;;;;-2.19;100.00;95504.75;4949965;28;20058;-48
2020/12/31 06:02:45;;;;;;;9.65;5.65;;;;;;;-2.30;100.00;95510.56;4987496;28;20236;-46
2020/12/31 06:05:14;;;;;;;10.95;6.10;;;;;;;-2.34;100.00;95510.81;4958078;28;20137;-54
2020/12/31 06:07:44;;;;;;;9.80;5.70;;;;;;;-2.34;100.00;95506.50;4987892;28;20050;-46
2020/12/31 06:10:14;;;;;;;10.23;5.70;;;;;;;-2.34;100.00;95511.66;4956832;28;20118;-48
2020/12/31 06:12:56;;;;;;;11.68;6.32;;;;;;;-2.38;100.00;95512.72;4984304;28;20501;-50
2020/12/31 06:15:26;;;;;;;9.82;5.57;;;;;;;-2.50;100.00;95510.88;4952731;28;20046;-46
2020/12/31 06:17:53;;;;;;;10.90;6.25;;;;;;;-2.44;100.00;95513.13;4986306;28;20497;-47
2020/12/31 06:20:21;;;;;;;13.10;6.13;;;;;;;-2.36;100.00;95520.41;4983806;28;20065;-48
2020/12/31 06:23:10;;;;;;;9.13;5.60;;;;;;;-2.48;100.00;95512.47;4961782;28;20043;-45
2020/12/31 06:25:46;;;;;;;8.52;5.32;;;;;;;-2.49;100.00;95523.69;4977310;28;20062;-55
2020/12/31 06:28:15;;;;;;;10.35;6.38;;;;;;;-2.51;100.00;95522.97;4983110;28;20050;-50
2020/12/31 06:30:45;;;;;;;10.13;5.97;;;;;;;-2.54;100.00;95520.56;4982927;28;20042;-47
2020/12/31 06:33:14;;;;;;;12.60;6.90;;;;;;;-2.64;100.00;95524.56;4954943;28;20045;-46
2020/12/31 06:35:42;;;;;;;13.65;8.05;;;;;;;-2.59;100.00;95525.13;4980130;28;20054;-47
2020/12/31 06:38:10;;;;;;;16.08;7.60;;;;;;;-2.42;100.00;95519.00;4954087;28;20471;-47
2020/12/31 06:40:37;;;;;;;12.30;7.05;;;;;;;-2.49;100.00;95518.53;4986256;28;20523;-52
2020/12/31 06:43:09;;;;;;;13.45;7.70;;;;;;;-2.40;100.00;95525.75;4955247;28;20058;-49
2020/12/31 06:45:41;;;;;;;11.05;6.85;;;;;;;-2.55;100.00;95528.38;4983228;28;20091;-49
2020/12/31 06:48:36;;;;;;;14.00;7.13;;;;;;;-2.60;100.00;95523.47;4956131;28;20428;-47
2020/12/31 06:51:08;;;;;;;13.23;6.80;;;;;;;-2.60;100.00;95525.22;4976152;28;20053;-45
2020/12/31 06:53:37;;;;;;;9.75;5.95;;;;;;;-2.53;100.00;95527.38;4952853;28;20505;-50
2020/12/31 06:56:06;;;;;;;10.55;6.28;;;;;;;-2.51;100.00;95535.88;4983768;28;20093;-50
2020/12/31 06:58:33;;;;;;;11.55;5.90;;;;;;;-2.48;100.00;95537.41;4955701;28;20058;-49
2020/12/31 07:01:07;;;;;;;10.88;5.53;;;;;;;-2.39;100.00;95529.97;4982682;28;20053;-46
2020/12/31 07:03:47;;;;;;;10.60;5.53;;;;;;;-2.34;100.00;95534.91;4950689;28;20129;-49
2020/12/31 07:06:30;;;;;;;9.10;5.35;;;;;;;-2.30;100.00;95531.22;4985824;28;20122;-46
2020/12/31 07:08:58;;;;;;;8.75;5.15;;;;;;;-2.44;100.00;95534.59;4957310;28;20049;-46
2020/12/31 07:11:36;;;;;;;9.52;5.40;;;;;;;-2.37;100.00;95542.81;4984930;28;20045;-46
2020/12/31 07:14:21;;;;;;;14.82;5.90;;;;;;;-2.46;100.00;95536.41;4950670;28;20197;-45
2020/12/31 07:16:56;;;;;;;8.93;5.07;;;;;;;-2.46;100.00;95531.25;4984403;28;20089;-45
2020/12/31 07:19:32;;;;;;;9.35;5.22;;;;;;;-2.52;100.00;95535.94;4957738;28;20046;-47
2020/12/31 07:22:06;;;;;;;8.50;5.03;;;;;;;-2.47;100.00;95529.59;4985613;28;20485;-47
2020/12/31 07:24:33;;;;;;;10.73;5.22;;;;;;;-2.48;100.00;95545.16;4953674;28;21394;-49
2020/12/31 07:27:01;;;;;;;8.65;5.22;;;;;;;-2.46;100.00;95536.41;4984823;28;20121;-48
2020/12/31 07:29:32;;;;;;;8.82;5.85;;;;;;;-2.38;100.00;95535.97;4958394;28;20054;-47
2020/12/31 07:32:01;;;;;;;11.43;6.18;;;;;;;-2.41;100.00;95537.00;4989753;28;20046;-46
2020/12/31 07:34:30;;;;;;;10.98;6.25;;;;;;;-2.43;100.00;95533.66;4939094;28;20047;-50
2020/12/31 07:37:02;;;;;;;;;;;;;;;-2.37;100.00;95540.22;4981197;28;20101;-50
2020/12/31 07:39:30;;;;;;;8.77;5.35;;;;;;;-2.18;100.00;95530.47;4953735;28;19921;-46
2020/12/31 07:42:14;;;;;;;10.02;5.55;;;;;;;-2.00;100.00;95528.53;4981395;28;20050;-47
2020/12/31 07:44:49;;;;;;;9.40;5.20;;;;;;;-1.93;100.00;95529.88;4946473;28;20065;-48
2020/12/31 07:47:17;;;;;;;8.07;5.25;;;;;;;-1.98;100.00;95531.88;4985953;28;20038;-46
2020/12/31 07:49:45;;;;;;;7.20;4.55;;;;;;;-1.91;100.00;95537.50;4952065;28;20049;-46
2020/12/31 07:52:13;;;;;;;9.52;4.97;;;;;;;-1.87;100.00;95539.00;4985800;28;20057;-52
2020/12/31 07:54:39;;;;;;;9.45;5.45;;;;;;;-1.89;100.00;95533.09;4945318;28;20050;-52
2020/12/31 07:57:10;;;;;;;9.75;5.32;;;;;;;-1.84;100.00;95525.88;4983286;28;20545;-44
2020/12/31 07:59:41;;;;;;;9.05;5.72;;;;;;;-1.80;100.00;95523.94;4953243;28;20073;-49
2020/12/31 08:02:08;;;;;;;9.48;5.68;;;;;;;-1.76;100.00;95518.50;4981981;28;20505;-49
2020/12/31 08:04:35;;;;;;;9.85;5.13;;;;;;;-1.72;100.00;95520.00;4948740;28;20575;-51
2020/12/31 08:07:04;;;;;;;8.93;5.28;;;;;;;-1.65;100.00;95519.59;4981484;28;20042;-48
2020/12/31 08:09:31;;;;;;;9.73;5.25;;;;;;;-1.51;100.00;95517.03;4985579;28;20041;-45
2020/12/31 08:11:58;;;;;;;8.73;5.07;;;;;;;-1.38;100.00;95517.06;4955067;28;20077;-48
2020/12/31 08:14:25;;;;;;;7.68;4.88;;;;;;;-1.24;100.00;95504.97;4981562;28;20128;-46
2020/12/31 08:17:00;;;;;;;9.15;5.60;;;;;;;-1.15;100.00;95511.28;4956909;28;20658;-47
2020/12/31 08:19:27;;;;;;;10.48;5.20;;;;;;;-1.13;100.00;95506.03;4984671;28;20041;-52
2020/12/31 08:22:00;;;;;;;10.05;5.72;;;;;;;-0.98;100.00;95507.63;4946690;28;20041;-47
2020/12/31 08:24:28;;;;;;;7.90;5.07;;;;;;;-0.75;100.00;95506.16;4986688;28;20057;-48
2020/12/31 08:26:57;;;;;;;11.50;5.22;;;;;;;-0.68;100.00;95499.66;4955157;28;20050;-48
2020/12/31 08:29:26;;;;;;;11.40;6.15;;;;;;;-0.61;100.00;95498.34;4980845;28;20048;-48
2020/12/31 08:31:54;;;;;;;13.88;8.75;;;;;;;-0.54;100.00;95493.59;4947765;28;20046;-47
2020/12/31 08:34:26;;;;;;;13.70;7.57;;;;;;;-0.38;100.00;95499.41;4983089;28;20047;-48
2020/12/31 08:36:55;;;;;;;10.43;6.85;;;;;;;-0.15;99.06;95502.22;4943332;28;20129;-45
2020/12/31 08:39:22;;;;;;;9.48;5.38;;;;;;;-0.30;98.70;95504.09;4983185;28;20042;-52
2020/12/31 08:41:57;;;;;;;8.63;5.20;;;;;;;-0.19;97.72;95490.41;4945095;28;20056;-47
2020/12/31 08:44:26;;;;;;;9.70;5.65;;;;;;;-0.15;98.40;95492.69;4984380;28;20039;-48
2020/12/31 08:46:53;;;;;;;8.65;5.75;;;;;;;-0.04;97.68;95485.00;4957131;28;20586;-49
2020/12/31 08:49:24;;;;;;;11.30;7.35;;;;;;;0.07;96.94;95489.47;4989429;28;20070;-46
2020/12/31 08:51:52;;;;;;;17.30;9.65;;;;;;;-0.06;96.24;95488.66;4948472;28;20712;-48
2020/12/31 08:54:19;;;;;;;14.95;8.55;;;;;;;0.06;96.15;95492.16;4988636;28;20038;-53
2020/12/31 08:56:46;;;;;;;18.35;8.50;;;;;;;0.29;95.47;95483.63;4960856;28;23351;-49
2020/12/31 08:59:16;;;;;;;16.70;8.70;;;;;;;0.34;95.44;95483.31;4983892;28;20153;-51
2020/12/31 09:01:44;;;;;;;15.38;7.28;;;;;;;0.19;95.99;95482.63;4951986;28;20478;-52
2020/12/31 09:04:14;;;;;;;16.48;7.47;;;;;;;0.44;95.02;95481.75;4990635;28;20045;-53
2020/12/31 09:06:42;;;;;;;8.55;5.90;;;;;;;0.46;94.72;95488.47;4988269;28;20046;-51
2020/12/31 09:09:20;;;;;;;9.20;5.50;;;;;;;0.49;95.15;95476.25;4955012;28;20066;-54
2020/12/31 09:11:55;;;;;;;8.90;5.70;;;;;;;0.56;95.06;95473.09;4988735;28;20054;-48
2020/12/31 09:14:23;;;;;;;9.70;6.00;;;;;;;0.67;95.91;95465.38;4955849;28;20519;-47
2020/12/31 09:16:50;;;;;;;11.57;7.53;;;;;;;0.70;94.53;95462.56;4985147;28;20484;-49
2020/12/31 09:19:17;;;;;;;10.80;6.57;;;;;;;1.00;92.85;95453.56;4958767;28;20057;-45
2020/12/31 09:21:44;;;;;;;9.43;7.15;;;;;;;1.04;92.81;95457.56;4990244;28;20126;-49
2020/12/31 09:24:15;;;;;;;10.77;7.50;;;;;;;1.29;90.91;95464.38;4957494;28;20542;-50
2020/12/31 09:26:51;;;;;;;10.27;6.93;;;;;;;1.46;91.08;95463.16;4985339;28;20061;-49
2020/12/31 09:29:19;;;;;;;9.32;6.03;;;;;;;1.38;90.04;95461.13;4957471;28;20469;-51
2020/12/31 09:31:47;;;;;;;9.30;6.20;;;;;;;1.36;90.25;95455.22;4988084;28;20119;-51
2020/12/31 09:34:15;;;;;;;9.48;6.10;;;;;;;1.52;90.37;95449.72;4948853;28;20051;-49
2020/12/31 09:36:42;;;;;;;9.90;6.00;;;;;;;1.43;90.47;95445.19;4981291;28;20048;-52
2020/12/31 09:39:09;;;;;;;7.95;5.50;;;;;;;1.56;90.26;95447.72;4961034;28;20113;-49
2020/12/31 09:41:36;;;;;;;8.18;5.80;;;;;;;1.62;89.17;95444.66;4985866;28;20074;-46
2020/12/31 09:44:04;;;;;;;9.65;5.97;;;;;;;1.83;88.95;95432.63;4958711;28;20508;-50
2020/12/31 09:46:31;;;;;;;11.82;6.80;;;;;;;1.90;88.68;95428.63;4986900;28;20081;-49
2020/12/31 09:48:59;;;;;;;7.70;5.70;;;;;;;2.04;88.28;95435.38;4949225;28;20042;-47
2020/12/31 09:51:26;;;;;;;8.77;5.72;;;;;;;2.17;85.82;95424.00;4986438;28;20081;-49
2020/12/31 09:53:53;;;;;;;9.45;6.15;;;;;;;2.28;85.46;95429.22;4954625;28;20039;-50
2020/12/31 09:56:20;;;;;;;10.65;5.88;;;;;;;2.32;84.58;95418.44;4986204;28;20041;-52
2020/12/31 09:58:47;;;;;;;8.75;5.70;;;;;;;2.43;83.69;95416.78;4982368;28;20040;-51
2020/12/31 10:01:15;;;;;;;8.82;6.07;;;;;;;2.56;84.22;95414.88;4957005;28;20057;-52
2020/12/31 10:03:42;;;;;;;8.57;4.93;;;;;;;2.42;83.00;95410.75;4984670;28;20097;-50
2020/12/31 10:06:09;;;;;;;8.77;5.60;;;;;;;2.60;83.66;95408.47;4948296;28;20134;-50
2020/12/31 10:08:36;;;;;;;10.43;5.85;;;;;;;2.60;82.76;95398.88;4988769;28;20046;-47
2020/12/31 10:11:05;;;;;;;8.43;5.63;;;;;;;2.60;82.65;95396.28;4945896;28;20180;-47
2020/12/31 10:13:32;;;;;;;10.32;5.13;;;;;;;2.86;82.45;95393.38;4982173;28;20043;-48
2020/12/31 10:15:59;;;;;;;8.93;5.50;;;;;;;2.92;81.81;95392.03;4954585;28;20667;-47
2020/12/31 10:18:46;;;;;;;8.88;5.30;;;;;;;3.20;80.75;95383.66;4989983;28;20051;-54
2020/12/31 10:21:14;;;;;;;7.43;4.93;;;;;;;3.16;79.47;95382.22;4958103;28;20576;-46
2020/12/31 10:23:41;;;;;;;8.65;5.18;;;;;;;3.27;77.53;95379.59;4985329;28;20509;-46
2020/12/31 10:26:08;;;;;;;8.23;5.20;;;;;;;3.28;77.71;95378.63;4948782;28;20101;-50
2020/12/31 10:28:35;;;;;;;7.82;4.70;;;;;;;3.30;77.35;95371.53;4982566;28;20067;-48
2020/12/31 10:31:02;;;;;;;9.73;6.03;;;;;;;3.22;76.12;95373.91;4945221;28;20038;-46
2020/12/31 10:33:28;;;;;;;9.05;5.97;;;;;;;3.29;77.28;95361.22;4987329;28;21515;-51
2020/12/31 10:35:55;;;;;;;7.90;4.43;;;;;;;3.21;75.12;95361.84;4944803;28;20108;-49
2020/12/31 10:38:23;;;;;;;6.30;4.13;;;;;;;3.15;75.15;95354.53;4976823;28;20044;-49
2020/12/31 10:40:50;;;;;;;7.13;4.00;;;;;;;3.34;75.65;95353.84;4935208;28;20557;-47
2020/12/31 10:43:16;;;;;;;8.25;3.75;;;;;;;3.40;74.28;95344.69;4986139;28;20081;-53
2020/12/31 10:45:43;;;;;;;5.10;3.47;;;;;;;3.29;73.68;95338.59;4961041;28;20125;-58
2020/12/31 10:48:12;;;;;;;6.22;3.42;;;;;;;3.35;72.69;95336.44;4982378;28;20050;-48
2020/12/31 10:50:39;;;;;;;3.78;2.35;;;;;;;3.23;73.07;95335.66;4987926;28;20046;-48
2020/12/31 10:53:06;;;;;;;4.65;2.45;;;;;;;3.35;70.40;95324.22;4947893;28;20569;-48
2020/12/31 10:55:33;;;;;;;4.40;2.20;;;;;;;3.42;70.51;95327.97;4976364;28;20081;-50
2020/12/31 10:58:01;;;;;;;4.80;3.42;;;;;;;3.54;71.48;95331.31;4951791;28;20054;-48
2020/12/31 11:00:28;;;;;;;4.82;3.38;;;;;;;3.56;71.18;95319.81;4983549;28;20047;-52
2020/12/31 11:02:54;;;;;;;4.43;2.70;;;;;;;3.55;70.38;95317.34;4942097;28;20054;-54
2020/12/31 11:05:22;;;;;;;3.92;2.75;;;;;;;3.62;68.88;95315.06;4978192;28;20074;-52
2020/12/31 11:07:48;;;;;;;4.25;2.80;;;;;;;3.72;68.41;95310.72;4948649;28;21005;-50
2020/12/31 11:10:15;;;;;;;4.25;2.80;;;;;;;3.71;68.68;95304.66;4976089;28;20061;-57
2020/12/31 11:12:44;;;;;;;3.40;2.47;;;;;;;3.74;68.54;95304.38;4950419;28;20085;-52
2020/12/31 11:15:10;;;;;;;4.63;2.97;;;;;;;3.82;67.82;95303.75;4979803;28;20911;-52
2020/12/31 11:17:37;;;;;;;4.03;2.67;;;;;;;4.00;67.37;95290.91;4940281;28;20071;-50
2020/12/31 11:20:04;;;;;;;3.10;2.17;;;;;;;3.94;66.65;95283.59;4977939;28;20043;-49
2020/12/31 11:22:31;;;;;;;3.33;2.30;;;;;;;4.00;66.76;95296.94;4946475;28;25094;-52
2020/12/31 11:24:58;;;;;;;6.63;3.05;;;;;;;4.02;66.53;95291.56;4976641;28;20042;-53
2020/12/31 11:27:25;;;;;;;3.45;2.55;;;;;;;4.02;66.06;95289.78;4942718;28;20057;-55
2020/12/31 11:29:53;;;;;;;5.82;2.80;;;;;;;4.19;65.23;95285.72;4984945;28;20547;-53
2020/12/31 11:32:20;;;;;;;3.17;2.13;;;;;;;4.10;66.04;95283.09;4974870;28;20070;-56
2020/12/31 11:34:47;;;;;;;2.25;1.23;;;;;;;3.98;62.94;95269.34;4947135;28;20209;-52
2020/12/31 11:37:14;;;;;;;2.45;1.50;;;;;;;3.93;61.91;95277.56;4969845;28;20046;-56
2020/12/31 11:39:41;;;;;;;2.13;1.55;;;;;;;3.98;61.25;95280.59;4944732;28;20042;-53